Time;durP1;ratioP1;P1;durP2;ratioP2;P2;SDS_P1;SDS_P2;PMS_P1;PMS_P2;Temp;Humidity;BMP_temperature;BMP_pressure;BME280_temperature;BME280_humidity;BME280_pressure;Samples;Min_cycle;Max_cycle;Signal;HPM_P1;HPM_P2
2022/09/08 00:01:16;;;;;;;;;;;;;;;24.27;52.43;100485.41;5145816;27;19923;-40
2022/09/08 00:03:42;;;;;;;;;;;;;;;24.26;52.34;100487.31;5121008;27;20299;-40
2022/09/08 00:06:09;;;;;;;;;;;;;;;24.26;52.29;100483.72;5137136;27;20285;-40
2022/09/08 00:08:34;;;;;;;;;;;;;;;24.25;52.28;100480.13;5123784;27;20403;-40
2022/09/08 00:11:02;;;;;;;;;;;;;;;24.25;52.41;100471.78;5142204;27;19930;-40
2022/09/08 00:13:27;;;;;;;;;;;;;;;24.26;52.42;100476.19;5127447;27;19970;-41
2022/09/08 00:15:54;;;;;;;;;;;;;;;24.26;52.44;100467.84;5123574;27;19942;-41
2022/09/08 00:18:19;;;;;;;;;;;;;;;24.25;52.33;100455.09;5121126;27;19953;-41
2022/09/08 00:20:45;;;;;;;;;;;;;;;24.25;52.36;100451.50;5143399;27;19931;-41
2022/09/08 00:23:11;;;;;;;;;;;;;;;24.24;52.44;100447.91;5139959;27;19924;-41
2022/09/08 00:25:36;;;;;;;;;;;;;;;24.25;52.41;100440.38;5145180;27;20344;-40
2022/09/08 00:28:02;;;;;;;;;;;;;;;24.25;52.30;100437.56;5139934;27;19930;-40
2022/09/08 00:30:28;;;;;;;;;;;;;;;24.24;52.33;100431.19;5140223;27;19931;-41
2022/09/08 00:32:53;;;;;;;;;;;;;;;24.24;52.47;100425.63;5144726;27;19923;-41
2022/09/08 00:35:19;;;;;;;;;;;;;;;24.25;52.47;100432.00;5143765;27;19924;-41
2022/09/08 00:37:48;;;;;;;;;;;;;;;24.25;52.34;100426.44;5140471;27;20001;-41
2022/09/08 00:40:14;;;;;;;;;;;;;;;24.24;52.33;100420.06;5145216;27;19931;-41
2022/09/08 00:42:39;;;;;;;;;;;;;;;24.24;52.22;100422.84;5120698;27;19943;-42
2022/09/08 00:45:05;;;;;;;;;;;;;;;24.23;52.34;100426.78;5120095;27;19931;-41
2022/09/08 00:47:33;;;;;;;;;;;;;;;24.24;52.42;100419.25;5143759;27;19938;-41
2022/09/08 00:50:02;;;;;;;;;;;;;;;24.24;52.22;100416.47;5143371;27;20022;-41
2022/09/08 00:52:28;;;;;;;;;;;;;;;24.23;52.39;100412.88;5127378;27;20009;-41
2022/09/08 00:54:54;;;;;;;;;;;;;;;24.23;52.31;100412.88;5144721;27;19962;-41
2022/09/08 00:57:20;;;;;;;;;;;;;;;24.23;52.38;100418.44;5124848;27;20406;-41
2022/09/08 00:59:46;;;;;;;;;;;;;;;24.23;52.29;100417.63;5140814;27;19923;-41
2022/09/08 01:02:21;;;;;;;;;;;;;;;24.23;52.30;100415.66;5143180;27;20068;-41
2022/09/08 01:04:48;;;;;;;;;;;;;;;24.22;52.23;100402.06;5140949;27;19962;-41
2022/09/08 01:12:51;;;;;;;;;;;;;;;24.22;52.33;100400.13;5120800;27;20027;-41
2022/09/08 01:15:18;;;;;;;;;;;;;;;24.23;52.50;100412.06;5139515;27;19999;-40
2022/09/08 01:17:44;;;;;;;;;;;;;;;24.21;52.33;100395.69;5139086;27;19969;-41
2022/09/08 01:20:10;;;;;;;;;;;;;;;24.22;52.25;100399.28;5124616;27;19931;-41
2022/09/08 01:22:53;;;;;;;;;;;;;;;24.22;52.37;100396.50;5142070;27;19923;-41
2022/09/08 01:25:39;;;;;;;;;;;;;;;24.22;52.31;100394.56;5138717;27;20019;-41
2022/09/08 01:28:06;;;;;;;;;;;;;;;24.21;52.33;100404.03;5127963;27;19967;-41
2022/09/08 01:30:32;;;;;;;;;;;;;;;24.21;52.30;100392.06;5122621;27;20013;-41
2022/09/08 01:32:57;;;;;;;;;;;;;;;24.22;52.40;100400.13;5138913;27;20364;-41
2022/09/08 01:35:31;;;;;;;;;;;;;;;24.21;52.28;100401.25;5144020;27;19930;-40
2022/09/08 01:37:56;;;;;;;;;;;;;;;24.21;52.28;100403.22;5136640;27;20011;-40
2022/09/08 01:40:22;;;;;;;;;;;;;;;24.21;52.25;100408.78;5143974;27;20352;-40
2022/09/08 01:42:48;;;;;;;;;;;;;;;24.21;52.32;100406.00;5138574;27;19923;-40
2022/09/08 01:45:13;;;;;;;;;;;;;;;24.20;52.37;100404.34;5144072;27;19931;-40
2022/09/08 01:47:39;;;;;;;;;;;;;;;24.21;52.26;100414.34;5140281;27;20342;-41
2022/09/08 01:50:04;;;;;;;;;;;;;;;24.20;52.38;100405.19;5140260;27;19930;-41
2022/09/08 01:52:30;;;;;;;;;;;;;;;24.20;52.26;100394.03;5137117;27;19981;-42
2022/09/08 01:54:55;;;;;;;;;;;;;;;24.19;52.24;100392.41;5143312;27;19946;-41
2022/09/08 01:57:21;;;;;;;;;;;;;;;24.19;52.38;100402.72;5140696;27;20054;-40
2022/09/08 01:59:47;;;;;;;;;;;;;;;24.19;52.30;100399.94;5143639;27;19929;-40
2022/09/08 02:02:13;;;;;;;;;;;;;;;24.18;52.32;100399.13;5140466;27;19931;-40
2022/09/08 02:04:38;;;;;;;;;;;;;;;24.19;52.19;100397.16;5140100;27;19924;-40
2022/09/08 02:07:04;;;;;;;;;;;;;;;24.19;52.23;100397.16;5138457;27;19935;-41
2022/09/08 02:09:29;;;;;;;;;;;;;;;24.20;52.36;100410.75;5143640;27;20307;-41
2022/09/08 02:11:55;;;;;;;;;;;;;;;24.19;52.36;100399.94;5142686;27;19930;-40
2022/09/08 02:14:20;;;;;;;;;;;;;;;24.19;52.40;100413.88;5144839;27;19986;-40
2022/09/08 02:16:46;;;;;;;;;;;;;;;24.18;52.28;100401.91;5140700;27;20448;-40
2022/09/08 02:19:12;;;;;;;;;;;;;;;24.19;52.35;100413.88;5139953;27;20353;-40
2022/09/08 02:21:38;;;;;;;;;;;;;;;24.18;52.41;100420.53;5139141;27;19978;-40
2022/09/08 02:24:04;;;;;;;;;;;;;;;24.18;52.21;100418.59;5140219;27;19927;-40
2022/09/08 02:26:30;;;;;;;;;;;;;;;24.18;52.26;100413.03;5139342;27;20027;-42
2022/09/08 02:28:56;;;;;;;;;;;;;;;24.18;52.29;100410.25;5142215;27;19925;-40
2022/09/08 02:31:22;;;;;;;;;;;;;;;24.18;52.35;100407.47;5141359;27;19930;-41
2022/09/08 02:33:48;;;;;;;;;;;;;;;24.18;52.26;100407.47;5148695;27;19942;-40
2022/09/08 02:36:13;;;;;;;;;;;;;;;24.17;52.33;100414.16;5124740;27;19931;-40
2022/09/08 02:38:39;;;;;;;;;;;;;;;24.18;52.24;100409.41;5124016;27;20353;-40
2022/09/08 02:41:06;;;;;;;;;;;;;;;24.18;52.20;100423.31;5144640;27;19948;-40
2022/09/08 02:43:31;;;;;;;;;;;;;;;24.18;52.38;100423.31;5147274;27;20022;-40
2022/09/08 02:46:01;;;;;;;;;;;;;;;24.17;52.25;100425.28;5125022;27;19937;-41
2022/09/08 02:48:27;;;;;;;;;;;;;;;24.17;52.28;100416.13;5127284;27;19953;-41
2022/09/08 02:50:53;;;;;;;;;;;;;;;24.17;52.20;100418.91;5142625;27;20370;-40
2022/09/08 02:53:18;;;;;;;;;;;;;;;24.17;52.26;100418.91;5141464;27;20269;-40
2022/09/08 02:55:44;;;;;;;;;;;;;;;24.16;52.25;100417.28;5141583;27;19931;-40
2022/09/08 02:58:11;;;;;;;;;;;;;;;24.17;52.27;100422.50;5146932;27;19968;-40
2022/09/08 03:00:38;;;;;;;;;;;;;;;24.17;52.25;100438.41;5124083;27;20397;-41
2022/09/08 03:03:03;;;;;;;;;;;;;;;24.16;52.27;100436.75;5141157;27;20037;-41
2022/09/08 03:05:30;;;;;;;;;;;;;;;24.16;52.34;100431.19;5125148;27;19967;-40
2022/09/08 03:07:56;;;;;;;;;;;;;;;24.16;52.36;100431.19;5122526;27;20376;-40
2022/09/08 03:10:23;;;;;;;;;;;;;;;24.16;52.35;100433.97;5149190;27;20334;-40
2022/09/08 03:12:50;;;;;;;;;;;;;;;24.16;52.24;100425.63;5125992;27;19958;-40
2022/09/08 03:15:16;;;;;;;;;;;;;;;24.16;52.30;100425.63;5128622;27;20015;-41
2022/09/08 03:17:41;;;;;;;;;;;;;;;24.15;52.22;100427.59;5144339;27;19959;-42
2022/09/08 03:20:09;;;;;;;;;;;;;;;24.15;52.26;100429.56;5145433;27;19927;-41
2022/09/08 03:22:34;;;;;;;;;;;;;;;24.16;52.30;100434.78;5146153;27;20387;-40
2022/09/08 03:25:00;;;;;;;;;;;;;;;24.16;52.33;100428.41;5143177;27;20400;-41
2022/09/08 03:27:26;;;;;;;;;;;;;;;24.15;52.41;100430.38;5119412;27;19935;-40
2022/09/08 03:29:53;;;;;;;;;;;;;;;24.16;52.25;100425.63;5147561;27;20056;-40
2022/09/08 03:32:19;;;;;;;;;;;;;;;24.15;52.43;100430.38;5144790;27;20373;-41
2022/09/08 03:34:44;;;;;;;;;;;;;;;24.15;52.29;100432.34;5144129;27;19923;-40
2022/09/08 03:37:10;;;;;;;;;;;;;;;24.15;52.28;100426.78;5145954;27;19923;-41
2022/09/08 03:39:35;;;;;;;;;;;;;;;24.13;52.39;100424.31;5142617;27;19923;-40
2022/09/08 03:42:02;;;;;;;;;;;;;;;24.15;52.29;100421.22;5141576;27;19981;-40
2022/09/08 03:44:27;;;;;;;;;;;;;;;24.14;52.25;100414.03;5145975;27;20022;-40
2022/09/08 03:46:53;;;;;;;;;;;;;;;24.14;52.23;100414.84;5135943;27;19923;-40
2022/09/08 03:49:19;;;;;;;;;;;;;;;24.15;52.27;100418.44;5144539;27;20359;-41
2022/09/08 03:51:44;;;;;;;;;;;;;;;24.14;52.25;100412.06;5141103;27;20357;-40
2022/09/08 03:56:55;;;;;;;;;;;;;;;24.14;52.37;100412.06;5127267;27;19969;-40
2022/09/08 03:59:21;;;;;;;;;;;;;;;24.13;52.35;100417.94;5125342;27;20288;-41
2022/09/08 04:01:47;;;;;;;;;;;;;;;24.14;52.39;100425.16;5142914;27;19930;-40
2022/09/08 04:04:12;;;;;;;;;;;;;;;24.13;52.47;100423.50;5141345;27;19931;-42
2022/09/08 04:06:39;;;;;;;;;;;;;;;24.13;52.31;100415.97;5144820;27;19923;-40
2022/09/08 04:09:05;;;;;;;;;;;;;;;24.13;52.37;100413.19;5151904;27;19962;-41
2022/09/08 04:11:31;;;;;;;;;;;;;;;24.13;52.29;100415.97;5145895;27;20268;-41
2022/09/08 04:13:56;;;;;;;;;;;;;;;24.12;52.32;100417.13;5144980;27;20412;-41
2022/09/08 04:16:22;;;;;;;;;;;;;;;24.13;52.22;100418.75;5143562;27;19934;-41
2022/09/08 04:18:48;;;;;;;;;;;;;;;24.12;52.23;100410.75;5144234;27;19954;-41
2022/09/08 04:21:13;;;;;;;;;;;;;;;24.13;52.31;100412.38;5141457;27;19930;-41
2022/09/08 04:23:39;;;;;;;;;;;;;;;24.12;52.26;100410.75;5140669;27;19927;-40
2022/09/08 04:26:05;;;;;;;;;;;;;;;24.13;52.27;100404.03;5143343;27;19938;-40
2022/09/08 04:28:31;;;;;;;;;;;;;;;24.11;52.21;100407.13;5144067;27;20002;-41
2022/09/08 04:30:57;;;;;;;;;;;;;;;24.12;52.19;100411.56;5143513;27;20135;-41
2022/09/08 04:33:22;;;;;;;;;;;;;;;24.13;52.35;100415.97;5140192;27;19931;-41
2022/09/08 04:35:48;;;;;;;;;;;;;;;24.13;52.43;100412.38;5145873;27;19923;-41
2022/09/08 04:38:13;;;;;;;;;;;;;;;24.12;52.49;100419.09;5145816;27;19923;-41
2022/09/08 04:40:40;;;;;;;;;;;;;;;24.13;52.24;100429.88;5136727;27;19924;-41
2022/09/08 04:43:05;;;;;;;;;;;;;;;24.13;52.17;100423.50;5123406;27;19962;-40
2022/09/08 04:45:31;;;;;;;;;;;;;;;24.13;52.21;100429.06;5141566;27;19930;-42
2022/09/08 04:47:56;;;;;;;;;;;;;;;24.13;52.16;100429.88;5142413;27;20308;-41
2022/09/08 04:50:22;;;;;;;;;;;;;;;24.13;52.38;100424.31;5142533;27;19930;-41
2022/09/08 04:52:47;;;;;;;;;;;;;;;24.13;52.20;100420.72;5126264;27;20083;-41
2022/09/08 04:55:13;;;;;;;;;;;;;;;24.12;52.13;100421.88;5142262;27;19931;-43
2022/09/08 04:57:38;;;;;;;;;;;;;;;24.14;52.13;100425.16;5141855;27;19923;-41
2022/09/08 05:00:04;;;;;;;;;;;;;;;24.13;52.12;100417.94;5140612;27;19930;-41
2022/09/08 05:02:30;;;;;;;;;;;;;;;24.13;52.10;100418.75;5138299;27;19923;-41
2022/09/08 05:04:55;;;;;;;;;;;;;;;24.11;52.18;100421.06;5139836;27;20408;-41
2022/09/08 05:07:21;;;;;;;;;;;;;;;24.13;52.15;100418.75;5137946;27;19927;-41
2022/09/08 05:09:47;;;;;;;;;;;;;;;24.13;52.19;100429.88;5144505;27;19966;-42
2022/09/08 05:12:12;;;;;;;;;;;;;;;24.12;52.13;100431.03;5138025;27;19935;-41
2022/09/08 05:14:38;;;;;;;;;;;;;;;24.13;52.13;100440.19;5138935;27;21029;-41
2022/09/08 05:17:03;;;;;;;;;;;;;;;24.12;52.07;100439.38;5140639;27;19923;-42
2022/09/08 05:19:29;;;;;;;;;;;;;;;24.12;52.16;100449.69;5143378;27;19929;-41
2022/09/08 05:21:55;;;;;;;;;;;;;;;24.11;51.90;100446.09;5143607;27;19931;-41
2022/09/08 05:24:21;;;;;;;;;;;;;;;24.10;52.08;100450.03;5143239;27;19923;-42
2022/09/08 05:26:46;;;;;;;;;;;;;;;24.11;52.07;100448.06;5141335;27;20293;-42
2022/09/08 05:29:12;;;;;;;;;;;;;;;24.10;52.26;100450.03;5122693;27;19946;-41
2022/09/08 05:31:38;;;;;;;;;;;;;;;24.11;52.26;100451.66;5143600;27;19939;-41
2022/09/08 05:34:03;;;;;;;;;;;;;;;24.10;52.12;100452.81;5144363;27;20370;-42
2022/09/08 05:36:30;;;;;;;;;;;;;;;24.09;52.14;100451.16;5140532;27;19923;-42
2022/09/08 05:38:56;;;;;;;;;;;;;;;24.10;52.20;100455.59;5140924;27;20409;-41
2022/09/08 05:41:22;;;;;;;;;;;;;;;24.11;52.29;100456.41;5141274;27;19923;-41
2022/09/08 05:43:47;;;;;;;;;;;;;;;24.10;52.23;100457.56;5126747;27;19923;-41
2022/09/08 05:46:13;;;;;;;;;;;;;;;24.09;52.20;100453.94;5137808;27;19924;-41
2022/09/08 05:48:43;;;;;;;;;;;;;;;24.09;52.19;100453.09;5137374;27;19931;-42
2022/09/08 05:51:09;;;;;;;;;;;;;;;24.09;52.30;100450.31;5139382;27;19923;-43
2022/09/08 05:53:35;;;;;;;;;;;;;;;24.09;52.50;100448.38;5135683;27;20343;-42
2022/09/08 05:56:02;;;;;;;;;;;;;;;24.10;52.33;100447.25;5137374;27;19974;-42
2022/09/08 05:58:28;;;;;;;;;;;;;;;24.10;52.51;100449.22;5135079;27;20041;-44
2022/09/08 06:00:58;;;;;;;;;;;;;;;24.10;52.56;100444.47;5136224;27;19934;-42
2022/09/08 06:03:23;;;;;;;;;;;;;;;24.10;52.66;100454.78;5121189;27;20021;-41
2022/09/08 06:05:49;;;;;;;;;;;;;;;24.10;52.27;100449.22;5137807;27;19967;-43
2022/09/08 06:08:15;;;;;;;;;;;;;;;24.09;52.30;100448.38;5143542;27;20289;-41
2022/09/08 06:10:40;;;;;;;;;;;;;;;24.09;52.36;100447.53;5143366;27;19923;-41
2022/09/08 06:13:10;;;;;;;;;;;;;;;24.09;52.32;100447.53;5136118;27;20277;-41
2022/09/08 06:15:36;;;;;;;;;;;;;;;24.09;52.90;100447.53;5136402;27;19924;-42
2022/09/08 06:18:01;;;;;;;;;;;;;;;24.09;52.35;100448.38;5142309;27;20067;-41
2022/09/08 06:20:28;;;;;;;;;;;;;;;24.08;52.39;100435.59;5141452;27;19931;-41
2022/09/08 06:22:53;;;;;;;;;;;;;;;24.08;52.31;100432.81;5144586;27;19979;-41
2022/09/08 06:25:19;;;;;;;;;;;;;;;24.08;52.36;100443.94;5143526;27;19972;-42
2022/09/08 06:27:48;;;;;;;;;;;;;;;24.08;52.20;100455.06;5135357;27;19946;-43
2022/09/08 06:30:15;;;;;;;;;;;;;;;24.08;52.24;100451.47;5139895;27;20747;-42
2022/09/08 06:33:00;;;;;;;;;;;;;;;24.08;52.33;100445.91;5143238;27;19962;-42
2022/09/08 06:35:27;;;;;;;;;;;;;;;24.06;52.20;100440.69;5127116;27;20338;-41
2022/09/08 06:37:53;;;;;;;;;;;;;;;24.06;52.22;100449.03;5118952;27;20066;-41
2022/09/08 06:40:22;;;;;;;;;;;;;;;24.08;52.64;100459.81;5142859;27;19967;-41
2022/09/08 06:45:27;;;;;;;;;;;;;;;24.08;52.33;100470.94;5162015;27;20383;-40
2022/09/08 06:47:56;;;;;;;;;;;;;;;24.07;52.54;100464.56;5131766;27;19931;-41
2022/09/08 06:50:21;;;;;;;;;;;;;;;24.07;52.71;100466.53;5137815;27;20066;-42
2022/09/08 06:52:48;;;;;;;;;;;;;;;24.07;52.69;100472.09;5159227;27;19927;-39
2022/09/08 06:55:34;;;;;;;;;;;;;;;24.07;52.28;100477.66;5153919;27;19975;-40
2022/09/08 06:58:03;;;;;;;;;;;;;;;24.08;53.17;100473.72;5152282;27;19956;-41
2022/09/08 07:00:50;;;;;;;;;;;;;;;24.07;52.45;100480.44;5149409;27;20014;-40
2022/09/08 07:03:24;;;;;;;;;;;;;;;24.07;52.84;100477.66;5120616;27;20078;-39
2022/09/08 07:05:58;;;;;;;;;;;;;;;24.07;52.76;100486.81;5141703;27;20093;-40
2022/09/08 07:08:43;;;;;;;;;;;;;;;23.62;56.50;100492.56;5122437;27;19930;-46
2022/09/08 07:11:13;;;;;;;;;;;;;;;23.75;55.75;100483.31;5132153;27;20033;-39
2022/09/08 07:13:50;;;;;;;;;;;;;;;23.90;54.83;100495.94;5155501;27;20373;-41
2022/09/08 07:16:20;;;;;;;;;;;;;;;23.98;54.43;100483.22;5146559;27;20021;-41
2022/09/08 07:18:48;;;;;;;;;;;;;;;24.00;54.28;100484.50;5154384;27;20649;-41
2022/09/08 07:21:31;;;;;;;;;;;;;;;23.92;54.51;100490.91;5149969;27;19941;-45
2022/09/08 07:23:57;;;;;;;;;;;;;;;24.00;54.22;100492.03;5153633;27;20017;-43
2022/09/08 07:26:25;;;;;;;;;;;;;;;24.01;54.08;100494.50;5135608;27;19927;-41
2022/09/08 07:28:51;;;;;;;;;;;;;;;24.01;54.03;100505.66;5155452;27;20013;-41
2022/09/08 07:31:18;;;;;;;;;;;;;;;24.02;53.83;100498.13;5159381;27;20272;-42
2022/09/08 07:33:44;;;;;;;;;;;;;;;24.03;53.83;100494.19;5147037;27;20652;-41
2022/09/08 07:36:30;;;;;;;;;;;;;;;24.04;53.70;100490.25;5159136;27;20029;-40
2022/09/08 07:38:56;;;;;;;;;;;;;;;24.03;53.59;100494.19;5143530;27;20021;-42
2022/09/08 07:41:30;;;;;;;;;;;;;;;24.03;53.52;100499.75;5156959;27;19962;-45
2022/09/08 07:43:59;;;;;;;;;;;;;;;24.05;53.48;100494.69;5133750;27;20677;-41
2022/09/08 07:49:28;;;;;;;;;;;;;;;24.05;53.43;100494.69;5158558;27;20013;-39
2022/09/08 07:52:14;;;;;;;;;;;;;;;24.03;53.48;100497.78;5142240;27;20392;-40
2022/09/08 07:54:58;;;;;;;;;;;;;;;24.03;53.54;100495.00;5143654;27;19988;-41
2022/09/08 07:57:27;;;;;;;;;;;;;;;24.06;53.58;100498.28;5159197;27;19967;-39
2022/09/08 08:00:08;;;;;;;;;;;;;;;24.06;53.60;100498.28;5158164;27;20021;-42
2022/09/08 08:02:41;;;;;;;;;;;;;;;24.07;53.53;100495.19;5159348;27;20329;-39
2022/09/08 08:05:26;;;;;;;;;;;;;;;24.08;53.43;100502.38;5154660;27;19930;-42
2022/09/08 08:08:12;;;;;;;;;;;;;;;24.08;53.43;100510.72;5128661;27;20053;-42
2022/09/08 08:10:38;;;;;;;;;;;;;;;24.09;53.50;100509.56;5135609;27;20002;-40
2022/09/08 08:13:09;;;;;;;;;;;;;;;24.09;53.54;100503.19;5145795;22;20311;-41
2022/09/08 08:15:39;;;;;;;;;;;;;;;24.09;53.63;100509.56;5053714;28;19936;-43
2022/09/08 08:18:11;;;;;;;;;;;;;;;24.10;53.61;100515.97;5047738;28;19978;-43
2022/09/08 08:20:47;;;;;;;;;;;;;;;24.09;53.76;100501.22;5058881;28;20014;-43
2022/09/08 08:23:17;;;;;;;;;;;;;;;24.11;53.85;100514.81;5043530;28;20398;-41
2022/09/08 08:25:49;;;;;;;;;;;;;;;24.11;53.85;100517.59;5058042;28;20020;-41
2022/09/08 08:28:17;;;;;;;;;;;;;;;24.09;53.81;100515.13;5055305;28;19963;-45
2022/09/08 08:30:47;;;;;;;;;;;;;;;24.10;53.97;100510.41;5054167;28;20006;-43
2022/09/08 08:33:16;;;;;;;;;;;;;;;24.10;54.02;100516.78;5052591;28;20011;-43
2022/09/08 08:35:44;;;;;;;;;;;;;;;24.10;53.62;100527.91;5047750;28;20035;-43
2022/09/08 08:38:14;;;;;;;;;;;;;;;24.11;53.62;100525.94;5044407;28;19928;-44
2022/09/08 08:40:44;;;;;;;;;;;;;;;24.11;53.28;100523.16;5048090;28;20668;-42
2022/09/08 08:43:20;;;;;;;;;;;;;;;24.10;53.29;100527.91;5051392;28;19924;-42
2022/09/08 08:45:50;;;;;;;;;;;;;;;24.10;53.06;100527.09;5056258;28;19968;-42
2022/09/08 08:48:22;;;;;;;;;;;;;;;24.11;52.95;100525.94;5059542;28;19972;-42
2022/09/08 08:50:55;;;;;;;;;;;;;;;24.10;53.30;100524.31;5057578;28;20368;-41
2022/09/08 08:53:44;;;;;;;;;;;;;;;24.08;53.46;100521.03;5052029;28;20427;-43
2022/09/08 08:56:30;;;;;;;;;;;;;;;24.06;53.48;100521.34;5045519;28;19982;-44
2022/09/08 08:59:15;;;;;;;;;;;;;;;23.53;56.37;100513.94;5047389;28;20019;-42
2022/09/08 09:01:44;;;;;;;;;;;;;;;23.66;55.84;100526.97;5042860;28;20363;-43
2022/09/08 09:04:29;;;;;;;;;;;;;;;23.86;54.82;100510.81;5043772;28;19975;-41
2022/09/08 09:07:15;;;;;;;;;;;;;;;23.97;54.20;100514.97;5039552;28;21712;-42
2022/09/08 09:09:54;;;;;;;;;;;;;;;24.01;54.31;100513.16;5046525;28;19925;-41
2022/09/08 09:15:26;;;;;;;;;;;;;;;24.06;54.03;100520.53;5170644;27;19933;-39
2022/09/08 09:18:16;;;;;;;;;;;;;;;24.07;53.94;100525.78;5140814;27;19946;-39
2022/09/08 09:20:48;;;;;;;;;;;;;;;24.07;53.72;100523.00;5156113;27;20017;-40
2022/09/08 09:23:24;;;;;;;;;;;;;;;24.08;53.74;100515.47;5142354;27;19927;-41
2022/09/08 09:25:56;;;;;;;;;;;;;;;24.07;53.50;100517.44;5157669;27;19931;-42
2022/09/08 09:28:25;;;;;;;;;;;;;;;23.51;54.20;100510.66;5137815;27;20116;-44
2022/09/08 09:30:56;;;;;;;;;;;;;;;23.83;53.58;100509.50;5128117;27;20041;-39
2022/09/08 09:33:27;;;;;;;;;;;;;;;23.97;53.20;100513.00;5154829;27;20258;-39
2022/09/08 09:38:50;;;;;;;;;;;;;;;24.04;52.88;100513.31;5153831;27;20026;-40
2022/09/08 09:41:20;;;;;;;;;;;;;;;24.07;52.75;100509.09;5126126;27;20053;-39
2022/09/08 09:44:06;;;;;;;;;;;;;;;24.08;52.78;100510.72;5137259;27;20217;-41
2022/09/08 09:46:51;;;;;;;;;;;;;;;24.08;52.62;100510.72;5118984;27;20016;-39
2022/09/08 09:49:37;;;;;;;;;;;;;;;24.09;52.64;100501.22;5121472;27;19927;-41
2022/09/08 09:52:22;;;;;;;;;;;;;;;24.09;52.52;100503.19;5123182;27;20014;-40
2022/09/08 09:54:52;;;;;;;;;;;;;;;24.11;52.61;100512.84;5124533;27;19928;-42
2022/09/08 09:57:38;;;;;;;;;;;;;;;24.11;52.16;100510.06;5128629;27;20023;-41
2022/09/08 10:00:13;;;;;;;;;;;;;;;24.09;52.02;100509.56;5123498;27;20074;-39
2022/09/08 10:02:58;;;;;;;;;;;;;;;24.09;52.09;100498.44;5121317;27;19990;-40
2022/09/08 10:05:44;;;;;;;;;;;;;;;23.97;52.00;100507.44;5123661;27;20060;-40
2022/09/08 10:08:29;;;;;;;;;;;;;;;24.09;51.90;100500.41;5125538;27;19976;-40
2022/09/08 10:11:15;;;;;;;;;;;;;;;24.10;51.89;100508.44;5125537;27;20355;-40
2022/09/08 10:14:00;;;;;;;;;;;;;;;24.11;51.92;100518.41;5119931;27;20014;-42
2022/09/08 10:16:38;;;;;;;;;;;;;;;24.10;52.17;100497.31;5134140;27;19931;-42
2022/09/08 10:19:08;;;;;;;;;;;;;;;24.13;52.13;100518.91;5135782;27;20026;-42
2022/09/08 10:21:41;;;;;;;;;;;;;;;24.13;51.96;100506.97;5142479;27;19927;-42
2022/09/08 10:24:14;;;;;;;;;;;;;;;24.14;51.76;100503.06;5138941;27;20437;-42
2022/09/08 10:26:45;;;;;;;;;;;;;;;24.15;51.86;100505.50;5140898;27;19923;-42
2022/09/08 10:32:24;;;;;;;;;;;;;;;24.14;51.43;100505.84;5154796;27;20017;-42
2022/09/08 10:35:09;;;;;;;;;;;;;;;24.15;51.57;100497.16;5138947;27;20428;-39
2022/09/08 10:37:44;;;;;;;;;;;;;;;24.20;51.29;100510.09;5150546;27;20075;-40
2022/09/08 10:40:29;;;;;;;;;;;;;;;23.76;49.22;100509.97;5151864;27;19970;-42
2022/09/08 10:43:03;;;;;;;;;;;;;;;24.05;50.35;100511.38;5136802;27;20026;-40
2022/09/08 10:45:33;;;;;;;;;;;;;;;24.13;50.25;100499.44;5151371;27;19974;-43
2022/09/08 10:48:18;;;;;;;;;;;;;;;24.17;50.49;100500.41;5134073;27;20354;-43
2022/09/08 10:50:49;;;;;;;;;;;;;;;24.21;50.46;100504.19;5133156;27;19963;-41
2022/09/08 10:53:20;;;;;;;;;;;;;;;24.20;50.41;100497.00;5158337;27;20328;-43
2022/09/08 10:55:54;;;;;;;;;;;;;;;24.21;50.79;100498.63;5153471;27;20006;-44
2022/09/08 10:58:26;;;;;;;;;;;;;;;24.22;50.63;100497.50;5148568;27;20030;-42
2022/09/08 11:01:11;;;;;;;;;;;;;;;24.18;49.96;100501.22;5149270;27;20061;-41
2022/09/08 11:06:50;;;;;;;;;;;;;;;24.18;50.17;100488.16;5166317;27;20037;-40
2022/09/08 11:09:21;;;;;;;;;;;;;;;24.18;50.38;100492.88;5149641;27;20196;-39
2022/09/08 11:11:51;;;;;;;;;;;;;;;24.18;50.45;100482.59;5147842;27;19962;-41
2022/09/08 11:14:38;;;;;;;;;;;;;;;24.19;50.61;100478.66;5154422;27;19959;-40
2022/09/08 11:17:21;;;;;;;;;;;;;;;24.21;50.87;100478.34;5132064;27;20018;-45
2022/09/08 11:19:48;;;;;;;;;;;;;;;24.21;50.52;100479.16;5156480;27;20333;-43
2022/09/08 11:22:34;;;;;;;;;;;;;;;24.21;50.42;100478.34;5144206;27;20026;-42
2022/09/08 11:25:19;;;;;;;;;;;;;;;24.22;50.52;100482.75;5133117;27;20009;-43
2022/09/08 11:30:40;;;;;;;;;;;;;;;24.25;50.69;100487.66;5173175;27;20534;-40
2022/09/08 11:33:26;;;;;;;;;;;;;;;24.22;50.35;100483.59;5160294;27;20051;-41
2022/09/08 11:38:52;;;;;;;;;;;;;;;24.23;50.05;100484.41;5157502;27;20025;-41
2022/09/08 11:41:37;;;;;;;;;;;;;;;24.12;48.87;100486.66;5152478;27;20643;-40
2022/09/08 11:44:22;;;;;;;;;;;;;;;24.20;48.76;100480.28;5126102;27;20014;-42
2022/09/08 11:49:42;;;;;;;;;;;;;;;24.22;48.69;100482.75;5173733;27;20287;-41
2022/09/08 11:52:33;;;;;;;;;;;;;;;24.21;48.44;100481.13;5141195;27;19975;-40
2022/09/08 11:55:25;;;;;;;;;;;;;;;24.22;49.29;100478.03;5157893;27;19931;-39
2022/09/08 11:57:55;;;;;;;;;;;;;;;24.22;49.02;100464.13;5144227;27;20034;-42
2022/09/08 12:00:41;;;;;;;;;;;;;;;24.23;48.87;100462.97;5160734;27;20006;-41
2022/09/08 12:03:22;;;;;;;;;;;;;;;24.24;49.12;100461.81;5141060;27;19927;-39
2022/09/08 12:05:54;;;;;;;;;;;;;;;24.25;49.30;100457.88;5157548;27;20189;-40
2022/09/08 12:09:00;;;;;;;;;;;;;;;24.24;49.42;100453.47;5144947;27;19927;-42
2022/09/08 12:11:45;;;;;;;;;;;;;;;24.24;49.01;100455.44;5140177;27;20025;-41
2022/09/08 12:14:15;;;;;;;;;;;;;;;24.24;49.04;100450.69;5141201;27;20022;-41
2022/09/08 12:17:06;;;;;;;;;;;;;;;24.26;48.93;100458.69;5157070;27;20377;-42
2022/09/08 12:19:51;;;;;;;;;;;;;;;24.26;49.22;100458.69;5156455;27;20555;-42
2022/09/08 12:22:23;;;;;;;;;;;;;;;24.28;50.54;100443.31;5140548;27;19973;-41
2022/09/08 12:25:09;;;;;;;;;;;;;;;24.28;50.97;100443.31;5162010;27;20341;-41
2022/09/08 12:28:14;;;;;;;;;;;;;;;24.31;51.24;100435.44;5123208;27;19923;-41
2022/09/08 12:31:00;;;;;;;;;;;;;;;24.31;51.32;100436.28;5140822;27;19962;-44
2022/09/08 12:33:33;;;;;;;;;;;;;;;24.32;50.72;100442.66;5135952;27;19975;-42
2022/09/08 12:36:00;;;;;;;;;;;;;;;24.30;49.97;100442.97;5145046;27;19930;-42
2022/09/08 12:38:34;;;;;;;;;;;;;;;24.30;49.29;100448.53;5123594;27;19983;-44
2022/09/08 12:41:05;;;;;;;;;;;;;;;24.29;49.29;100439.38;5141907;27;20288;-41
2022/09/08 12:43:34;;;;;;;;;;;;;;;24.29;49.13;100450.50;5155617;27;20022;-45
2022/09/08 12:46:24;;;;;;;;;;;;;;;24.28;48.55;100446.09;5140685;27;19924;-42
2022/09/08 12:48:55;;;;;;;;;;;;;;;24.27;48.39;100449.22;5160948;27;19927;-42
2022/09/08 12:51:28;;;;;;;;;;;;;;;24.27;48.32;100441.69;5159233;27;20246;-43
2022/09/08 12:54:14;;;;;;;;;;;;;;;24.28;48.80;100443.31;5154889;27;20479;-43
2022/09/08 12:56:59;;;;;;;;;;;;;;;24.28;49.02;100445.28;5141059;27;20030;-42
2022/09/08 12:59:29;;;;;;;;;;;;;;;24.27;48.59;100443.66;5137639;27;19938;-43
2022/09/08 13:01:59;;;;;;;;;;;;;;;24.26;48.82;100445.59;5146690;27;20026;-41
2022/09/08 13:04:30;;;;;;;;;;;;;;;24.27;48.72;100447.25;5144745;27;19923;-42
2022/09/08 13:07:15;;;;;;;;;;;;;;;24.28;49.04;100448.06;5149067;27;20076;-41
2022/09/08 13:10:01;;;;;;;;;;;;;;;24.28;49.20;100442.50;5129860;27;20070;-41
2022/09/08 13:12:30;;;;;;;;;;;;;;;24.28;49.39;100448.06;5133001;27;20085;-41
2022/09/08 13:15:15;;;;;;;;;;;;;;;24.30;50.67;100445.75;5144865;27;20034;-42
2022/09/08 13:17:46;;;;;;;;;;;;;;;24.28;49.45;100448.06;5127156;27;19929;-42
2022/09/08 13:20:16;;;;;;;;;;;;;;;24.28;48.73;100450.84;5145444;27;20246;-41
2022/09/08 13:22:44;;;;;;;;;;;;;;;24.29;50.79;100455.25;5145508;27;20370;-42
2022/09/08 13:25:20;;;;;;;;;;;;;;;24.29;50.31;100455.25;5144380;27;20357;-42
2022/09/08 13:28:03;;;;;;;;;;;;;;;24.29;50.49;100455.25;5140231;27;20013;-41
2022/09/08 13:30:37;;;;;;;;;;;;;;;24.29;51.10;100444.13;5142902;27;19999;-43